sensor_id;sensor_type;location;lat;lon;timestamp;pressure;altitude;pressure_sealevel;temperature;humidity
59073;BME280;44859;51.934;15.554;2023-07-13T00:01:14;99400.71;;;20.54;50.48
59073;BME280;44859;51.934;15.554;2023-07-13T00:03:43;99397.14;;;20.52;50.59
59073;BME280;44859;51.934;15.554;2023-07-13T00:06:11;99390.73;;;20.52;50.40
59073;BME280;44859;51.934;15.554;2023-07-13T00:08:44;99393.46;;;20.51;50.22
59073;BME280;44859;51.934;15.554;2023-07-13T00:11:34;99386.80;;;20.52;50.01
59073;BME280;44859;51.934;15.554;2023-07-13T00:14:06;99375.52;;;20.52;50.03
59073;BME280;44859;51.934;15.554;2023-07-13T00:16:37;99377.70;;;20.54;49.89
59073;BME280;44859;51.934;15.554;2023-07-13T00:19:26;99384.60;;;20.55;50.18
59073;BME280;44859;51.934;15.554;2023-07-13T00:21:58;99380.52;;;20.54;50.01
59073;BME280;44859;51.934;15.554;2023-07-13T00:24:36;99382.36;;;20.54;49.63
59073;BME280;44859;51.934;15.554;2023-07-13T00:27:23;99380.09;;;20.53;49.32
59073;BME280;44859;51.934;15.554;2023-07-13T00:29:52;99380.05;;;20.54;49.83
59073;BME280;44859;51.934;15.554;2023-07-13T00:32:33;99384.80;;;20.52;49.86
59073;BME280;44859;51.934;15.554;2023-07-13T00:35:04;99385.32;;;20.51;49.92
59073;BME280;44859;51.934;15.554;2023-07-13T00:37:33;99394.84;;;20.50;49.77
59073;BME280;44859;51.934;15.554;2023-07-13T00:40:09;99394.75;;;20.51;49.29
59073;BME280;44859;51.934;15.554;2023-07-13T00:42:41;99393.61;;;20.53;49.04
59073;BME280;44859;51.934;15.554;2023-07-13T00:47:43;99389.21;;;20.55;48.69
59073;BME280;44859;51.934;15.554;2023-07-13T00:50:14;99392.82;;;20.54;48.47
59073;BME280;44859;51.934;15.554;2023-07-13T00:52:52;99395.13;;;20.54;48.30
59073;BME280;44859;51.934;15.554;2023-07-13T00:55:42;99395.39;;;20.53;48.08
59073;BME280;44859;51.934;15.554;2023-07-13T00:58:12;99394.31;;;20.53;48.10
59073;BME280;44859;51.934;15.554;2023-07-13T01:00:41;99391.06;;;20.52;47.92
59073;BME280;44859;51.934;15.554;2023-07-13T01:03:12;99391.92;;;20.51;48.22
59073;BME280;44859;51.934;15.554;2023-07-13T01:05:42;99390.00;;;20.48;48.18
59073;BME280;44859;51.934;15.554;2023-07-13T01:08:32;99394.27;;;20.44;48.19
59073;BME280;44859;51.934;15.554;2023-07-13T01:11:01;99396.09;;;20.42;48.26
59073;BME280;44859;51.934;15.554;2023-07-13T01:13:39;99394.35;;;20.40;48.12
59073;BME280;44859;51.934;15.554;2023-07-13T01:16:24;99391.02;;;20.37;48.21
59073;BME280;44859;51.934;15.554;2023-07-13T01:18:55;99391.41;;;20.35;47.98
59073;BME280;44859;51.934;15.554;2023-07-13T01:21:51;99389.02;;;20.32;48.07
59073;BME280;44859;51.934;15.554;2023-07-13T01:24:23;99389.02;;;20.30;48.07
59073;BME280;44859;51.934;15.554;2023-07-13T01:26:54;99391.34;;;20.30;48.02
59073;BME280;44859;51.934;15.554;2023-07-13T01:29:25;99394.11;;;20.29;47.86
59073;BME280;44859;51.934;15.554;2023-07-13T01:32:06;99391.61;;;20.28;48.10
59073;BME280;44859;51.934;15.554;2023-07-13T01:34:36;99389.51;;;20.25;47.95
59073;BME280;44859;51.934;15.554;2023-07-13T01:37:05;99387.15;;;20.24;48.11
59073;BME280;44859;51.934;15.554;2023-07-13T01:39:39;99379.89;;;20.21;48.04
59073;BME280;44859;51.934;15.554;2023-07-13T01:42:10;99370.29;;;20.20;48.01
59073;BME280;44859;51.934;15.554;2023-07-13T01:44:44;99361.96;;;20.17;48.11
59073;BME280;44859;51.934;15.554;2023-07-13T01:47:12;99363.36;;;20.12;48.22
59073;BME280;44859;51.934;15.554;2023-07-13T01:49:41;99356.09;;;20.05;48.42
59073;BME280;44859;51.934;15.554;2023-07-13T01:52:09;99359.42;;;19.99;48.61
59073;BME280;44859;51.934;15.554;2023-07-13T01:54:37;99356.46;;;19.89;48.82
59073;BME280;44859;51.934;15.554;2023-07-13T01:57:06;99356.58;;;19.78;48.92
59073;BME280;44859;51.934;15.554;2023-07-13T01:59:35;99352.29;;;19.68;49.31
59073;BME280;44859;51.934;15.554;2023-07-13T02:02:07;99355.48;;;19.60;49.68
59073;BME280;44859;51.934;15.554;2023-07-13T02:04:38;99354.94;;;19.53;50.23
59073;BME280;44859;51.934;15.554;2023-07-13T02:07:08;99354.88;;;19.48;50.29
59073;BME280;44859;51.934;15.554;2023-07-13T02:09:36;99365.38;;;19.44;50.54
59073;BME280;44859;51.934;15.554;2023-07-13T02:12:06;99378.67;;;19.38;50.61
59073;BME280;44859;51.934;15.554;2023-07-13T02:14:34;99385.70;;;19.36;50.97
59073;BME280;44859;51.934;15.554;2023-07-13T02:17:06;99388.62;;;19.31;51.17
59073;BME280;44859;51.934;15.554;2023-07-13T02:19:34;99388.45;;;19.27;51.41
59073;BME280;44859;51.934;15.554;2023-07-13T02:22:04;99385.95;;;19.23;51.83
59073;BME280;44859;51.934;15.554;2023-07-13T02:24:32;99386.40;;;19.20;52.08
59073;BME280;44859;51.934;15.554;2023-07-13T02:27:01;99391.05;;;19.18;52.22
59073;BME280;44859;51.934;15.554;2023-07-13T02:29:30;99386.16;;;19.17;52.59
59073;BME280;44859;51.934;15.554;2023-07-13T02:31:58;99395.29;;;19.11;53.02
59073;BME280;44859;51.934;15.554;2023-07-13T02:34:27;99396.48;;;19.03;53.20
59073;BME280;44859;51.934;15.554;2023-07-13T02:37:01;99399.13;;;19.00;53.56
59073;BME280;44859;51.934;15.554;2023-07-13T02:39:29;99403.02;;;18.96;54.06
59073;BME280;44859;51.934;15.554;2023-07-13T02:42:00;99410.70;;;18.92;54.25
59073;BME280;44859;51.934;15.554;2023-07-13T02:44:31;99413.86;;;18.88;54.61
59073;BME280;44859;51.934;15.554;2023-07-13T02:47:00;99408.63;;;18.85;54.97
59073;BME280;44859;51.934;15.554;2023-07-13T02:49:29;99407.40;;;18.80;55.38
59073;BME280;44859;51.934;15.554;2023-07-13T02:52:07;99399.91;;;18.79;55.70
59073;BME280;44859;51.934;15.554;2023-07-13T02:54:35;99401.28;;;18.79;56.00
59073;BME280;44859;51.934;15.554;2023-07-13T02:57:16;99391.45;;;18.80;56.15
59073;BME280;44859;51.934;15.554;2023-07-13T02:59:47;99383.21;;;18.77;56.39
59073;BME280;44859;51.934;15.554;2023-07-13T03:02:16;99382.23;;;18.74;56.59
59073;BME280;44859;51.934;15.554;2023-07-13T03:04:48;99381.20;;;18.67;57.11
59073;BME280;44859;51.934;15.554;2023-07-13T03:07:17;99388.89;;;18.61;57.42
59073;BME280;44859;51.934;15.554;2023-07-13T03:09:45;99396.16;;;18.55;57.82
59073;BME280;44859;51.934;15.554;2023-07-13T03:12:26;99399.65;;;18.51;58.20
59073;BME280;44859;51.934;15.554;2023-07-13T03:14:55;99395.11;;;18.44;58.63
59073;BME280;44859;51.934;15.554;2023-07-13T03:17:24;99398.63;;;18.39;58.93
59073;BME280;44859;51.934;15.554;2023-07-13T03:19:53;99395.23;;;18.32;59.53
59073;BME280;44859;51.934;15.554;2023-07-13T03:22:22;99401.14;;;18.30;59.87
59073;BME280;44859;51.934;15.554;2023-07-13T03:24:51;99399.14;;;18.27;60.16
59073;BME280;44859;51.934;15.554;2023-07-13T03:27:19;99402.52;;;18.24;60.56
59073;BME280;44859;51.934;15.554;2023-07-13T03:29:48;99410.17;;;18.24;60.80
59073;BME280;44859;51.934;15.554;2023-07-13T03:32:16;99410.42;;;18.21;61.25
59073;BME280;44859;51.934;15.554;2023-07-13T03:34:45;99412.80;;;18.19;61.51
59073;BME280;44859;51.934;15.554;2023-07-13T03:37:13;99418.34;;;18.20;61.74
59073;BME280;44859;51.934;15.554;2023-07-13T03:39:46;99419.68;;;18.21;62.05
59073;BME280;44859;51.934;15.554;2023-07-13T03:42:18;99424.11;;;18.23;62.28
59073;BME280;44859;51.934;15.554;2023-07-13T03:44:46;99418.55;;;18.24;62.28
59073;BME280;44859;51.934;15.554;2023-07-13T03:47:23;99419.46;;;18.26;62.56
59073;BME280;44859;51.934;15.554;2023-07-13T03:49:51;99418.91;;;18.28;62.66
59073;BME280;44859;51.934;15.554;2023-07-13T03:52:20;99418.47;;;18.29;62.91
59073;BME280;44859;51.934;15.554;2023-07-13T03:55:09;99421.16;;;18.31;63.11
59073;BME280;44859;51.934;15.554;2023-07-13T03:57:37;99422.30;;;18.34;63.04
59073;BME280;44859;51.934;15.554;2023-07-13T04:00:17;99419.59;;;18.37;63.31
59073;BME280;44859;51.934;15.554;2023-07-13T04:02:46;99426.26;;;18.40;63.19
59073;BME280;44859;51.934;15.554;2023-07-13T04:05:36;99429.98;;;18.42;63.25
59073;BME280;44859;51.934;15.554;2023-07-13T04:08:05;99430.56;;;18.43;63.44
59073;BME280;44859;51.934;15.554;2023-07-13T04:10:33;99430.73;;;18.46;63.53
59073;BME280;44859;51.934;15.554;2023-07-13T04:13:05;99433.05;;;18.48;63.47
59073;BME280;44859;51.934;15.554;2023-07-13T04:15:38;99436.77;;;18.50;63.56
59073;BME280;44859;51.934;15.554;2023-07-13T04:18:10;99440.23;;;18.53;63.35
59073;BME280;44859;51.934;15.554;2023-07-13T04:20:48;99444.61;;;18.56;63.50
59073;BME280;44859;51.934;15.554;2023-07-13T04:23:18;99451.55;;;18.57;63.71
59073;BME280;44859;51.934;15.554;2023-07-13T04:25:48;99458.58;;;18.57;63.70
59073;BME280;44859;51.934;15.554;2023-07-13T04:28:22;99462.87;;;18.56;63.77
59073;BME280;44859;51.934;15.554;2023-07-13T04:31:11;99464.79;;;18.55;63.95
59073;BME280;44859;51.934;15.554;2023-07-13T04:33:40;99460.84;;;18.55;63.90
59073;BME280;44859;51.934;15.554;2023-07-13T04:36:09;99470.14;;;18.56;63.96
59073;BME280;44859;51.934;15.554;2023-07-13T04:38:38;99474.64;;;18.56;64.10
59073;BME280;44859;51.934;15.554;2023-07-13T04:41:10;99481.77;;;18.56;64.38
59073;BME280;44859;51.934;15.554;2023-07-13T04:43:42;99482.01;;;18.57;64.45
59073;BME280;44859;51.934;15.554;2023-07-13T04:46:14;99479.63;;;18.60;64.92
59073;BME280;44859;51.934;15.554;2023-07-13T04:48:44;99478.47;;;18.63;65.05
59073;BME280;44859;51.934;15.554;2023-07-13T04:51:22;99480.37;;;18.65;65.11
59073;BME280;44859;51.934;15.554;2023-07-13T04:53:50;99485.16;;;18.70;65.33
59073;BME280;44859;51.934;15.554;2023-07-13T04:56:25;99492.48;;;18.74;65.19
59073;BME280;44859;51.934;15.554;2023-07-13T04:58:54;99499.62;;;18.78;65.40
59073;BME280;44859;51.934;15.554;2023-07-13T05:01:22;99508.77;;;18.81;65.43
59073;BME280;44859;51.934;15.554;2023-07-13T05:04:03;99511.90;;;18.84;65.72
59073;BME280;44859;51.934;15.554;2023-07-13T05:06:33;99512.64;;;18.86;65.72
59073;BME280;44859;51.934;15.554;2023-07-13T05:09:04;99507.11;;;18.88;65.89
59073;BME280;44859;51.934;15.554;2023-07-13T05:11:32;99511.02;;;18.88;65.60
59073;BME280;44859;51.934;15.554;2023-07-13T05:14:01;99521.80;;;18.84;65.86
59073;BME280;44859;51.934;15.554;2023-07-13T05:16:33;99521.08;;;18.76;65.90
59073;BME280;44859;51.934;15.554;2023-07-13T05:19:02;99520.45;;;18.69;66.06
59073;BME280;44859;51.934;15.554;2023-07-13T05:21:31;99521.39;;;18.68;66.20
59073;BME280;44859;51.934;15.554;2023-07-13T05:24:03;99521.56;;;18.71;66.38
59073;BME280;44859;51.934;15.554;2023-07-13T05:26:50;99518.79;;;18.74;66.65
59073;BME280;44859;51.934;15.554;2023-07-13T05:29:19;99525.44;;;18.81;66.42
59073;BME280;44859;51.934;15.554;2023-07-13T05:31:49;99525.88;;;18.89;65.81
59073;BME280;44859;51.934;15.554;2023-07-13T05:34:18;99527.29;;;18.97;65.57
59073;BME280;44859;51.934;15.554;2023-07-13T05:36:47;99525.41;;;19.00;64.86
59073;BME280;44859;51.934;15.554;2023-07-13T05:39:17;99526.65;;;19.02;64.72
59073;BME280;44859;51.934;15.554;2023-07-13T05:41:45;99530.72;;;19.02;64.71
59073;BME280;44859;51.934;15.554;2023-07-13T05:44:14;99536.35;;;18.99;64.39
59073;BME280;44859;51.934;15.554;2023-07-13T05:46:42;99534.55;;;19.01;64.54
59073;BME280;44859;51.934;15.554;2023-07-13T05:49:11;99534.77;;;19.03;64.51
59073;BME280;44859;51.934;15.554;2023-07-13T05:51:39;99534.59;;;19.05;64.47
59073;BME280;44859;51.934;15.554;2023-07-13T05:54:08;99536.05;;;19.11;64.68
59073;BME280;44859;51.934;15.554;2023-07-13T05:56:37;99532.23;;;19.20;64.74
59073;BME280;44859;51.934;15.554;2023-07-13T05:59:05;99536.50;;;19.28;64.65
59073;BME280;44859;51.934;15.554;2023-07-13T06:01:34;99536.86;;;19.28;64.31
59073;BME280;44859;51.934;15.554;2023-07-13T06:04:06;99543.56;;;19.30;64.44
59073;BME280;44859;51.934;15.554;2023-07-13T06:06:35;99542.52;;;19.40;64.69
59073;BME280;44859;51.934;15.554;2023-07-13T06:09:03;99545.48;;;19.61;64.72
59073;BME280;44859;51.934;15.554;2023-07-13T06:11:31;99547.27;;;19.87;64.57
59073;BME280;44859;51.934;15.554;2023-07-13T06:14:00;99550.86;;;19.98;63.93
59073;BME280;44859;51.934;15.554;2023-07-13T06:16:42;99554.73;;;19.97;63.77
59073;BME280;44859;51.934;15.554;2023-07-13T06:19:22;99551.91;;;19.91;63.42
59073;BME280;44859;51.934;15.554;2023-07-13T06:21:51;99554.13;;;19.78;63.33
59073;BME280;44859;51.934;15.554;2023-07-13T06:24:24;99551.38;;;19.66;63.52
59073;BME280;44859;51.934;15.554;2023-07-13T06:27:16;99555.28;;;19.59;63.74
59073;BME280;44859;51.934;15.554;2023-07-13T06:29:45;99551.26;;;19.60;63.72
59073;BME280;44859;51.934;15.554;2023-07-13T06:32:13;99546.52;;;19.79;63.76
59073;BME280;44859;51.934;15.554;2023-07-13T06:34:49;99539.73;;;20.11;63.76
59073;BME280;44859;51.934;15.554;2023-07-13T06:37:23;99543.12;;;20.57;62.94
59073;BME280;44859;51.934;15.554;2023-07-13T06:39:52;99545.35;;;20.97;62.45
59073;BME280;44859;51.934;15.554;2023-07-13T06:42:24;99546.36;;;21.40;61.44
59073;BME280;44859;51.934;15.554;2023-07-13T06:44:53;99547.23;;;21.58;60.53
59073;BME280;44859;51.934;15.554;2023-07-13T06:47:42;99546.16;;;21.67;60.26
59073;BME280;44859;51.934;15.554;2023-07-13T06:50:14;99544.84;;;21.74;59.21
59073;BME280;44859;51.934;15.554;2023-07-13T06:52:55;99545.85;;;21.84;59.20
59073;BME280;44859;51.934;15.554;2023-07-13T06:55:32;99551.30;;;21.76;58.27
59073;BME280;44859;51.934;15.554;2023-07-13T06:58:01;99557.05;;;21.58;58.23
59073;BME280;44859;51.934;15.554;2023-07-13T07:00:58;99560.35;;;21.71;58.35
59073;BME280;44859;51.934;15.554;2023-07-13T07:03:28;99559.00;;;21.90;57.94
59073;BME280;44859;51.934;15.554;2023-07-13T07:06:21;99559.03;;;22.10;57.53
59073;BME280;44859;51.934;15.554;2023-07-13T07:09:19;99557.52;;;22.24;56.75
59073;BME280;44859;51.934;15.554;2023-07-13T07:12:03;99554.02;;;22.31;56.48
59073;BME280;44859;51.934;15.554;2023-07-13T07:14:32;99553.19;;;22.31;55.82
59073;BME280;44859;51.934;15.554;2023-07-13T07:17:06;99555.73;;;22.16;55.91
59073;BME280;44859;51.934;15.554;2023-07-13T07:19:42;99551.80;;;21.98;56.08
59073;BME280;44859;51.934;15.554;2023-07-13T07:22:10;99550.71;;;21.85;56.15
59073;BME280;44859;51.934;15.554;2023-07-13T07:24:38;99552.52;;;21.82;56.92
59073;BME280;44859;51.934;15.554;2023-07-13T07:27:10;99552.86;;;21.93;57.13
59073;BME280;44859;51.934;15.554;2023-07-13T07:30:00;99551.80;;;22.23;56.23
59073;BME280;44859;51.934;15.554;2023-07-13T07:32:32;99554.20;;;22.36;55.36
59073;BME280;44859;51.934;15.554;2023-07-13T07:35:06;99556.59;;;22.32;53.84
59073;BME280;44859;51.934;15.554;2023-07-13T07:37:36;99555.98;;;22.45;53.03
59073;BME280;44859;51.934;15.554;2023-07-13T07:40:09;99559.52;;;22.74;52.72
59073;BME280;44859;51.934;15.554;2023-07-13T07:42:40;99559.09;;;22.59;51.65
59073;BME280;44859;51.934;15.554;2023-07-13T07:45:10;99555.23;;;22.47;51.75
59073;BME280;44859;51.934;15.554;2023-07-13T07:47:39;99550.81;;;22.71;51.61
59073;BME280;44859;51.934;15.554;2023-07-13T07:50:30;99547.68;;;22.94;51.15
59073;BME280;44859;51.934;15.554;2023-07-13T07:52:59;99543.31;;;22.81;50.25
59073;BME280;44859;51.934;15.554;2023-07-13T07:55:27;99545.10;;;22.66;50.04
59073;BME280;44859;51.934;15.554;2023-07-13T07:58:02;99548.00;;;22.61;50.51
59073;BME280;44859;51.934;15.554;2023-07-13T08:00:51;99548.54;;;22.95;49.36
59073;BME280;44859;51.934;15.554;2023-07-13T08:03:27;99547.77;;;23.20;48.60
59073;BME280;44859;51.934;15.554;2023-07-13T08:06:19;99550.78;;;23.36;48.48
59073;BME280;44859;51.934;15.554;2023-07-13T08:08:51;99553.98;;;23.46;47.64
59073;BME280;44859;51.934;15.554;2023-07-13T08:11:23;99555.01;;;23.60;47.13
59073;BME280;44859;51.934;15.554;2023-07-13T08:14:06;99558.64;;;23.88;46.42
59073;BME280;44859;51.934;15.554;2023-07-13T08:16:34;99558.74;;;23.92;46.21
59073;BME280;44859;51.934;15.554;2023-07-13T08:19:03;99559.46;;;24.17;46.41
59073;BME280;44859;51.934;15.554;2023-07-13T08:21:32;99554.84;;;24.31;45.41
59073;BME280;44859;51.934;15.554;2023-07-13T08:24:01;99561.08;;;24.05;45.69
59073;BME280;44859;51.934;15.554;2023-07-13T08:26:32;99558.39;;;24.22;46.27
59073;BME280;44859;51.934;15.554;2023-07-13T08:29:00;99554.14;;;24.48;45.75
59073;BME280;44859;51.934;15.554;2023-07-13T08:31:31;99554.48;;;24.59;44.82
59073;BME280;44859;51.934;15.554;2023-07-13T08:34:00;99558.53;;;24.74;44.52
59073;BME280;44859;51.934;15.554;2023-07-13T08:36:37;99555.11;;;24.84;44.19
59073;BME280;44859;51.934;15.554;2023-07-13T08:39:05;99558.70;;;24.87;44.16
59073;BME280;44859;51.934;15.554;2023-07-13T08:41:37;99563.42;;;24.83;43.66
59073;BME280;44859;51.934;15.554;2023-07-13T08:44:27;99563.88;;;24.48;43.45
59073;BME280;44859;51.934;15.554;2023-07-13T08:47:01;99566.36;;;24.17;43.94
59073;BME280;44859;51.934;15.554;2023-07-13T08:49:30;99565.42;;;24.08;44.75
59073;BME280;44859;51.934;15.554;2023-07-13T08:52:08;99571.61;;;24.20;44.84
59073;BME280;44859;51.934;15.554;2023-07-13T08:54:52;99572.31;;;24.22;44.67
59073;BME280;44859;51.934;15.554;2023-07-13T08:57:31;99573.21;;;24.20;44.81
59073;BME280;44859;51.934;15.554;2023-07-13T09:00:01;99578.11;;;24.10;44.17
59073;BME280;44859;51.934;15.554;2023-07-13T09:05:04;99574.91;;;24.18;45.06
59073;BME280;44859;51.934;15.554;2023-07-13T09:11:23;99573.98;;;24.69;44.79
59073;BME280;44859;51.934;15.554;2023-07-13T09:16:57;99577.79;;;25.09;44.24
59073;BME280;44859;51.934;15.554;2023-07-13T09:19:28;99576.23;;;25.31;43.54
59073;BME280;44859;51.934;15.554;2023-07-13T09:22:04;99578.70;;;25.33;43.27
59073;BME280;44859;51.934;15.554;2023-07-13T09:27:24;99586.21;;;25.41;42.55
59073;BME280;44859;51.934;15.554;2023-07-13T09:32:47;99586.88;;;25.26;42.06
59073;BME280;44859;51.934;15.554;2023-07-13T09:35:29;99583.45;;;25.11;42.28
59073;BME280;44859;51.934;15.554;2023-07-13T09:38:23;99586.14;;;25.29;42.51
59073;BME280;44859;51.934;15.554;2023-07-13T09:46:32;99592.55;;;25.07;43.11
59073;BME280;44859;51.934;15.554;2023-07-13T09:49:09;99588.41;;;24.86;42.69
59073;BME280;44859;51.934;15.554;2023-07-13T09:51:45;99587.34;;;25.09;42.96
59073;BME280;44859;51.934;15.554;2023-07-13T09:54:23;99589.57;;;25.24;42.92
59073;BME280;44859;51.934;15.554;2023-07-13T09:56:59;99589.70;;;25.37;42.11
59073;BME280;44859;51.934;15.554;2023-07-13T09:59:42;99588.48;;;25.23;41.96
59073;BME280;44859;51.934;15.554;2023-07-13T10:02:34;99586.33;;;25.14;41.96
59073;BME280;44859;51.934;15.554;2023-07-13T10:05:13;99584.06;;;25.26;42.08
59073;BME280;44859;51.934;15.554;2023-07-13T10:07:45;99587.02;;;25.29;42.13
59073;BME280;44859;51.934;15.554;2023-07-13T10:10:22;99588.23;;;25.49;42.24
59073;BME280;44859;51.934;15.554;2023-07-13T10:12:51;99589.11;;;25.47;42.10
59073;BME280;44859;51.934;15.554;2023-07-13T10:15:24;99591.14;;;25.09;41.57
59073;BME280;44859;51.934;15.554;2023-07-13T10:18:02;99581.72;;;24.80;41.47
59073;BME280;44859;51.934;15.554;2023-07-13T10:20:34;99582.82;;;25.06;42.32
59073;BME280;44859;51.934;15.554;2023-07-13T10:23:15;99583.73;;;25.61;41.41
59073;BME280;44859;51.934;15.554;2023-07-13T10:25:50;99584.96;;;25.90;40.25
59073;BME280;44859;51.934;15.554;2023-07-13T10:28:35;99583.75;;;25.92;39.72
59073;BME280;44859;51.934;15.554;2023-07-13T10:31:11;99588.63;;;25.80;39.17
59073;BME280;44859;51.934;15.554;2023-07-13T10:33:41;99592.35;;;25.13;39.80
59073;BME280;44859;51.934;15.554;2023-07-13T10:36:29;99593.88;;;24.61;40.78
59073;BME280;44859;51.934;15.554;2023-07-13T10:39:15;99597.30;;;24.50;41.32
59073;BME280;44859;51.934;15.554;2023-07-13T10:42:11;99589.97;;;24.64;41.37
59073;BME280;44859;51.934;15.554;2023-07-13T10:44:40;99585.64;;;25.02;39.76
59073;BME280;44859;51.934;15.554;2023-07-13T10:47:15;99589.26;;;25.51;39.32
59073;BME280;44859;51.934;15.554;2023-07-13T10:49:48;99590.42;;;25.61;38.74
59073;BME280;44859;51.934;15.554;2023-07-13T10:53:01;99595.77;;;25.52;39.09
59073;BME280;44859;51.934;15.554;2023-07-13T10:55:46;99597.96;;;24.97;38.51
59073;BME280;44859;51.934;15.554;2023-07-13T10:58:31;99594.87;;;24.70;38.93
59073;BME280;44859;51.934;15.554;2023-07-13T11:01:27;99595.39;;;24.64;39.32
59073;BME280;44859;51.934;15.554;2023-07-13T11:04:12;99594.16;;;24.83;39.35
59073;BME280;44859;51.934;15.554;2023-07-13T11:06:43;99599.63;;;24.95;38.96
59073;BME280;44859;51.934;15.554;2023-07-13T11:12:49;99595.65;;;25.86;38.70
59073;BME280;44859;51.934;15.554;2023-07-13T11:15:54;99600.61;;;26.00;38.33
59073;BME280;44859;51.934;15.554;2023-07-13T11:18:31;99601.23;;;25.73;36.54
59073;BME280;44859;51.934;15.554;2023-07-13T11:21:14;99608.59;;;25.05;37.26
59073;BME280;44859;51.934;15.554;2023-07-13T11:24:28;99607.21;;;24.66;37.45
59073;BME280;44859;51.934;15.554;2023-07-13T11:27:21;99603.48;;;24.90;38.31
59073;BME280;44859;51.934;15.554;2023-07-13T11:29:50;99607.55;;;25.38;36.96
59073;BME280;44859;51.934;15.554;2023-07-13T11:32:50;99601.42;;;25.53;36.76
59073;BME280;44859;51.934;15.554;2023-07-13T11:36:07;99593.49;;;26.07;37.37
59073;BME280;44859;51.934;15.554;2023-07-13T11:41:50;99586.74;;;26.44;36.00
59073;BME280;44859;51.934;15.554;2023-07-13T11:44:21;99587.67;;;25.80;36.98
59073;BME280;44859;51.934;15.554;2023-07-13T11:46:53;99586.18;;;25.76;37.63
59073;BME280;44859;51.934;15.554;2023-07-13T11:49:25;99580.35;;;25.90;37.31
59073;BME280;44859;51.934;15.554;2023-07-13T11:51:56;99580.77;;;26.16;36.90
59073;BME280;44859;51.934;15.554;2023-07-13T11:54:34;99582.38;;;26.41;36.83
59073;BME280;44859;51.934;15.554;2023-07-13T11:57:23;99582.07;;;26.63;37.06
59073;BME280;44859;51.934;15.554;2023-07-13T11:59:55;99585.64;;;27.01;36.16
59073;BME280;44859;51.934;15.554;2023-07-13T12:02:33;99581.98;;;27.18;35.66
59073;BME280;44859;51.934;15.554;2023-07-13T12:05:04;99577.91;;;27.35;35.20
59073;BME280;44859;51.934;15.554;2023-07-13T12:08:31;99575.27;;;27.38;35.05
59073;BME280;44859;51.934;15.554;2023-07-13T12:10:39;99578.69;;;27.45;35.02
59073;BME280;44859;51.934;15.554;2023-07-13T12:13:08;99577.70;;;27.59;35.01
59073;BME280;44859;51.934;15.554;2023-07-13T12:15:43;99576.80;;;27.31;34.25
59073;BME280;44859;51.934;15.554;2023-07-13T12:18:33;99576.96;;;26.91;35.13
59073;BME280;44859;51.934;15.554;2023-07-13T12:24:19;99574.19;;;26.28;36.38
59073;BME280;44859;51.934;15.554;2023-07-13T12:30:29;99575.92;;;26.18;36.53
59073;BME280;44859;51.934;15.554;2023-07-13T12:35:30;99585.46;;;25.68;36.38
59073;BME280;44859;51.934;15.554;2023-07-13T12:38:25;99583.10;;;25.35;37.04
59073;BME280;44859;51.934;15.554;2023-07-13T12:40:56;99585.05;;;25.31;37.41
59073;BME280;44859;51.934;15.554;2023-07-13T12:43:35;99586.34;;;25.35;38.03
59073;BME280;44859;51.934;15.554;2023-07-13T12:46:47;99584.62;;;25.33;37.79
59073;BME280;44859;51.934;15.554;2023-07-13T12:49:13;99586.31;;;24.73;37.83
59073;BME280;44859;51.934;15.554;2023-07-13T12:51:50;99589.52;;;24.49;38.43
59073;BME280;44859;51.934;15.554;2023-07-13T12:54:19;99592.56;;;24.39;38.91
59073;BME280;44859;51.934;15.554;2023-07-13T12:56:53;99593.70;;;24.40;39.49
59073;BME280;44859;51.934;15.554;2023-07-13T12:59:23;99584.41;;;24.54;39.82
59073;BME280;44859;51.934;15.554;2023-07-13T13:01:58;99587.77;;;24.74;39.39
59073;BME280;44859;51.934;15.554;2023-07-13T13:04:28;99592.39;;;24.93;39.32
59073;BME280;44859;51.934;15.554;2023-07-13T13:07:02;99587.85;;;25.15;38.99
59073;BME280;44859;51.934;15.554;2023-07-13T13:09:50;99582.14;;;25.28;39.28
59073;BME280;44859;51.934;15.554;2023-07-13T13:12:20;99578.99;;;25.22;38.66
59073;BME280;44859;51.934;15.554;2023-07-13T13:14:48;99575.54;;;25.31;38.85
59073;BME280;44859;51.934;15.554;2023-07-13T13:17:24;99574.78;;;25.42;38.27
59073;BME280;44859;51.934;15.554;2023-07-13T13:19:56;99574.02;;;25.36;38.29
59073;BME280;44859;51.934;15.554;2023-07-13T13:22:25;99571.58;;;25.34;39.02
59073;BME280;44859;51.934;15.554;2023-07-13T13:24:53;99572.96;;;25.66;38.70
59073;BME280;44859;51.934;15.554;2023-07-13T13:27:31;99571.98;;;25.82;37.74
59073;BME280;44859;51.934;15.554;2023-07-13T13:29:59;99571.69;;;25.31;37.22
59073;BME280;44859;51.934;15.554;2023-07-13T13:32:28;99568.84;;;24.88;37.96
59073;BME280;44859;51.934;15.554;2023-07-13T13:35:08;99572.05;;;24.72;38.44
59073;BME280;44859;51.934;15.554;2023-07-13T13:38:01;99570.21;;;24.46;38.77
59073;BME280;44859;51.934;15.554;2023-07-13T13:40:29;99579.20;;;24.30;39.27
59073;BME280;44859;51.934;15.554;2023-07-13T13:43:02;99583.48;;;24.20;39.36
59073;BME280;44859;51.934;15.554;2023-07-13T13:45:31;99585.59;;;24.27;39.65
59073;BME280;44859;51.934;15.554;2023-07-13T13:48:01;99578.88;;;24.62;39.96
59073;BME280;44859;51.934;15.554;2023-07-13T13:50:32;99577.38;;;25.13;39.24
59073;BME280;44859;51.934;15.554;2023-07-13T13:53:02;99577.14;;;25.43;38.30
59073;BME280;44859;51.934;15.554;2023-07-13T13:55:32;99577.68;;;25.55;37.94
59073;BME280;44859;51.934;15.554;2023-07-13T13:58:00;99580.39;;;25.64;37.88
59073;BME280;44859;51.934;15.554;2023-07-13T14:00:32;99584.53;;;25.71;37.78
59073;BME280;44859;51.934;15.554;2023-07-13T14:03:01;99580.55;;;25.70;37.21
59073;BME280;44859;51.934;15.554;2023-07-13T14:05:49;99581.41;;;25.57;37.25
59073;BME280;44859;51.934;15.554;2023-07-13T14:08:21;99584.51;;;25.45;37.55